首页
METAR-TAF:

METAR-TAF

机场 :

Hays, 堪薩斯州, 美国

纬度: 38-51N, 经度: 099-16W, 海拔: 609米

当前天气观测

该预报发布于25分钟前的02:56 UTC
风速6节,风向东转东北
温度 3°C
湿度 81%
气压 1021 hPa
能見度: 16.1公里
天空无云

METAR: KHYS 140256Z AUTO 06006KT 10SM CLR 03/00 A3015 RMK AO2 SLP224 T00330000 53030

时间: 21:21 (03:21 UTC)

预报

该预报发布于2小时和43分钟前的00:38 UTC
预报有效从14日的 01点(UTC)到 14日的 24点(UTC)
风速6节,风向多变
能見度: 10公里
少量云层高于20000英尺

TAF: KHYS 140038Z 1401/1424 VRB06KT P6SM FEW200

超过4000个机场的气象观测和天气预报(METAR&TAF报告)。

可查询的气象台以黄色和红色小点在地图上表示。

将鼠标移到小点上方,可查看气象台名称。

然后点击查看天气观测和预报。

如需切换地图:点击带黑十字的绿色按钮放大地图;点击带横线的绿色按钮缩小地图;或者点击绿色箭头查看邻近地区的地图。


METAR-TAF: